PWSweather.com
Personal Weather Stations
Station Observations
MENWDWX1
Menstrie, ScotlandGB

MenstrieScotlandGB

Lat: 56.148322, Lon: -3.85483

Elevation: 62

Station Type: Davis Vantage Pro 2

Latest ConditionsUpdated 10:05:01 PM GMT Friday, Oct 18, 2019
Currently Today's Max Today's Min Today's Average
Temperature 47.2°F8.4°C 52.9°F11.6°C 45.8°F7.7°C 48.3°F9.1°C
Dew Point 43.2°F6.2°C 47.8°F8.8°C 41.8°F5.4°C 44.0°F6.7°C
Winds 9.2 mph N14.8 kmh N 9.2 mph -14.8 kmh - - 2.2 mph 3.5 kmh
Wind Gusts 13.8 mph22.2 kmh 13.8 mph22.2 kmh - -
Humidity 86% 87% 79% 85%
Pressure 29.34 in993.6 mb 29.38 in994.9 mb 29.31 in992.6 mb -
Precipitation - 0.08 in2.0 mm - -
Hour Temp Dew Point Humidity Winds Wind Gusts Pressure Precip Precip Rate Daily Precip Total
10:05 PM 47.2°F8.4°C 43.2°F6.2°C 86% 9.2 mph N14.8 kmh N 13.8 mph22.2 kmh 29.34 in993.6 mb - 0.00 in0.0 mm 0.08 in2.0 mm
10:00 PM 47.0°F8.3°C 43.0°F6.1°C 86% 6.9 mph N11.1 kmh N 10.4 mph16.7 kmh 29.35 in993.9 mb - 0.00 in0.0 mm 0.08 in2.0 mm
09:55 PM 47.0°F8.3°C 43.0°F6.1°C 86% 5.8 mph NNW9.3 kmh NNW 8.1 mph13.0 kmh 29.35 in993.9 mb - 0.00 in0.0 mm 0.08 in2.0 mm
09:50 PM 47.0°F8.3°C 43.0°F6.1°C 86% 3.5 mph E5.6 kmh E 3.5 mph5.6 kmh 29.35 in993.9 mb - 0.00 in0.0 mm 0.08 in2.0 mm
09:45 PM 47.0°F8.3°C 43.0°F6.1°C 86% 1.2 mph WNW1.9 kmh WNW 3.5 mph5.6 kmh 29.35 in993.9 mb - 0.00 in0.0 mm 0.08 in2.0 mm
09:40 PM 47.1°F8.4°C 43.1°F6.2°C 86% 1.2 mph SSW1.9 kmh SSW 3.5 mph5.6 kmh 29.34 in993.6 mb - 0.00 in0.0 mm 0.08 in2.0 mm
09:35 PM 47.0°F8.3°C 43.0°F6.1°C 86% 2.3 mph SW3.7 kmh SW 3.5 mph5.6 kmh 29.35 in993.9 mb - 0.00 in0.0 mm 0.08 in2.0 mm
09:30 PM 47.0°F8.3°C 43.0°F6.1°C 86% 1.2 mph SSE1.9 kmh SSE 3.5 mph5.6 kmh 29.35 in993.9 mb - 0.00 in0.0 mm 0.08 in2.0 mm
09:25 PM 47.0°F8.3°C 43.0°F6.1°C 86% 3.5 mph W5.6 kmh W 3.5 mph5.6 kmh 29.34 in993.6 mb - 0.00 in0.0 mm 0.08 in2.0 mm
09:20 PM 47.0°F8.3°C 43.0°F6.1°C 86% 1.2 mph WSW1.9 kmh WSW 3.5 mph5.6 kmh 29.34 in993.6 mb - 0.00 in0.0 mm 0.08 in2.0 mm
09:15 PM 47.0°F8.3°C 43.0°F6.1°C 86% 2.3 mph N3.7 kmh N 3.5 mph5.6 kmh 29.34 in993.6 mb - 0.00 in0.0 mm 0.08 in2.0 mm
09:10 PM 47.0°F8.3°C 43.0°F6.1°C 86% 1.2 mph N1.9 kmh N 1.2 mph1.9 kmh 29.34 in993.6 mb - 0.00 in0.0 mm 0.08 in2.0 mm
09:05 PM 47.0°F8.3°C 43.0°F6.1°C 86% 2.3 mph WSW3.7 kmh WSW 3.5 mph5.6 kmh 29.34 in993.6 mb - 0.00 in0.0 mm 0.08 in2.0 mm
09:00 PM 47.1°F8.4°C 43.1°F6.2°C 86% 2.3 mph W3.7 kmh W 3.5 mph5.6 kmh 29.34 in993.6 mb - 0.00 in0.0 mm 0.08 in2.0 mm
08:55 PM 47.2°F8.4°C 43.2°F6.2°C 86% 2.3 mph WSW3.7 kmh WSW 3.5 mph5.6 kmh 29.34 in993.6 mb - 0.00 in0.0 mm 0.08 in2.0 mm
08:50 PM 47.3°F8.5°C 43.3°F6.3°C 86% 1.2 mph SSW1.9 kmh SSW 3.5 mph5.6 kmh 29.34 in993.6 mb - 0.00 in0.0 mm 0.08 in2.0 mm
08:45 PM 47.3°F8.5°C 43.3°F6.3°C 86% 1.2 mph SSW1.9 kmh SSW 2.3 mph3.7 kmh 29.34 in993.6 mb - 0.00 in0.0 mm 0.08 in2.0 mm
08:40 PM 47.4°F8.6°C 43.4°F6.3°C 86% 1.2 mph SSW1.9 kmh SSW 2.3 mph3.7 kmh 29.34 in993.6 mb - 0.00 in0.0 mm 0.08 in2.0 mm
08:35 PM 47.5°F8.6°C 43.6°F6.4°C 86% 2.3 mph SSW3.7 kmh SSW 3.5 mph5.6 kmh 29.34 in993.6 mb - 0.00 in0.0 mm 0.08 in2.0 mm
08:30 PM 47.6°F8.7°C 43.6°F6.4°C 86% Calm Calm 2.3 mph3.7 kmh 29.34 in993.6 mb - 0.00 in0.0 mm 0.08 in2.0 mm
08:25 PM 47.7°F8.7°C 43.7°F6.5°C 86% 1.2 mph S1.9 kmh S 3.5 mph5.6 kmh 29.34 in993.6 mb - 0.00 in0.0 mm 0.08 in2.0 mm
08:20 PM 47.7°F8.7°C 43.7°F6.5°C 86% 2.3 mph S3.7 kmh S 4.6 mph7.4 kmh 29.34 in993.6 mb - 0.00 in0.0 mm 0.08 in2.0 mm
08:15 PM 47.7°F8.7°C 43.7°F6.5°C 86% Calm Calm -- 29.34 in993.6 mb - 0.00 in0.0 mm 0.08 in2.0 mm
08:10 PM 47.8°F8.8°C 43.8°F6.6°C 86% 3.5 mph NNE5.6 kmh NNE 4.6 mph7.4 kmh 29.34 in993.6 mb - 0.00 in0.0 mm 0.08 in2.0 mm
08:05 PM 47.9°F8.8°C 43.6°F6.4°C 85% 2.3 mph SSE3.7 kmh SSE 3.5 mph5.6 kmh 29.34 in993.6 mb - 0.00 in0.0 mm 0.08 in2.0 mm
08:00 PM 47.9°F8.8°C 43.6°F6.4°C 85% 2.3 mph W3.7 kmh W 3.5 mph5.6 kmh 29.33 in993.2 mb - 0.00 in0.0 mm 0.08 in2.0 mm
07:55 PM 47.8°F8.8°C 43.5°F6.4°C 85% 4.6 mph NNE7.4 kmh NNE 10.4 mph16.7 kmh 29.33 in993.2 mb - 0.00 in0.0 mm 0.08 in2.0 mm
07:50 PM 47.5°F8.6°C 43.5°F6.4°C 86% 5.8 mph E9.3 kmh E 8.1 mph13.0 kmh 29.33 in993.2 mb - 0.00 in0.0 mm 0.08 in2.0 mm
07:45 PM 47.3°F8.5°C 43.3°F6.3°C 86% 6.9 mph E11.1 kmh E 8.1 mph13.0 kmh 29.33 in993.2 mb - 0.00 in0.0 mm 0.08 in2.0 mm
07:40 PM 47.2°F8.4°C 43.2°F6.2°C 86% 3.5 mph E5.6 kmh E 3.5 mph5.6 kmh 29.33 in993.2 mb - 0.00 in0.0 mm 0.08 in2.0 mm
07:35 PM 47.0°F8.3°C 43.0°F6.1°C 86% 3.5 mph SE5.6 kmh SE 6.9 mph11.1 kmh 29.33 in993.2 mb - 0.00 in0.0 mm 0.08 in2.0 mm
07:30 PM 47.0°F8.3°C 43.0°F6.1°C 86% 2.3 mph NE3.7 kmh NE 4.6 mph7.4 kmh 29.33 in993.2 mb - 0.00 in0.0 mm 0.08 in2.0 mm
07:25 PM 47.0°F8.3°C 43.0°F6.1°C 86% 3.5 mph NE5.6 kmh NE 6.9 mph11.1 kmh 29.33 in993.2 mb - 0.00 in0.0 mm 0.08 in2.0 mm
07:20 PM 47.1°F8.4°C 43.1°F6.2°C 86% 3.5 mph WNW5.6 kmh WNW 3.5 mph5.6 kmh 29.33 in993.2 mb - 0.00 in0.0 mm 0.08 in2.0 mm
07:15 PM 47.1°F8.4°C 43.1°F6.2°C 86% 2.3 mph WSW3.7 kmh WSW 3.5 mph5.6 kmh 29.33 in993.2 mb - 0.00 in0.0 mm 0.08 in2.0 mm
07:10 PM 47.0°F8.3°C 43.0°F6.1°C 86% Calm Calm 3.5 mph5.6 kmh 29.33 in993.2 mb - 0.00 in0.0 mm 0.08 in2.0 mm
07:05 PM 47.0°F8.3°C 43.0°F6.1°C 86% 1.2 mph SW1.9 kmh SW 2.3 mph3.7 kmh 29.33 in993.2 mb - 0.00 in0.0 mm 0.08 in2.0 mm
07:00 PM 47.0°F8.3°C 43.0°F6.1°C 86% 2.3 mph SW3.7 kmh SW 3.5 mph5.6 kmh 29.33 in993.2 mb - 0.00 in0.0 mm 0.08 in2.0 mm
06:55 PM 46.9°F8.3°C 42.9°F6.1°C 86% 2.3 mph WSW3.7 kmh WSW 4.6 mph7.4 kmh 29.33 in993.2 mb - 0.01 in0.3 mm 0.08 in2.0 mm
06:50 PM 46.9°F8.3°C 42.9°F6.1°C 86% 4.6 mph WSW7.4 kmh WSW 8.1 mph13.0 kmh 29.33 in993.2 mb - 0.01 in0.3 mm 0.08 in2.0 mm
06:45 PM 46.9°F8.3°C 42.9°F6.1°C 86% 3.5 mph W5.6 kmh W 5.8 mph9.3 kmh 29.33 in993.2 mb - 0.01 in0.3 mm 0.08 in2.0 mm
06:40 PM 46.9°F8.3°C 42.9°F6.1°C 86% 5.8 mph WNW9.3 kmh WNW 8.1 mph13.0 kmh 29.33 in993.2 mb - 0.01 in0.3 mm 0.08 in2.0 mm
06:35 PM 46.9°F8.3°C 42.9°F6.1°C 86% 2.3 mph WSW3.7 kmh WSW 3.5 mph5.6 kmh 29.33 in993.2 mb - 0.01 in0.3 mm 0.08 in2.0 mm
06:30 PM 46.8°F8.2°C 42.8°F6.0°C 86% 3.5 mph WSW5.6 kmh WSW 4.6 mph7.4 kmh 29.33 in993.2 mb - 0.01 in0.3 mm 0.08 in2.0 mm
06:25 PM 46.8°F8.2°C 42.8°F6.0°C 86% 2.3 mph W3.7 kmh W 3.5 mph5.6 kmh 29.33 in993.2 mb - 0.02 in0.5 mm 0.08 in2.0 mm
06:20 PM 46.7°F8.2°C 42.8°F6.0°C 86% Calm Calm -- 29.33 in993.2 mb - 0.02 in0.5 mm 0.08 in2.0 mm
06:15 PM 46.8°F8.2°C 42.8°F6.0°C 86% 1.2 mph W1.9 kmh W 3.5 mph5.6 kmh 29.33 in993.2 mb - 0.02 in0.5 mm 0.08 in2.0 mm
06:10 PM 46.8°F8.2°C 42.8°F6.0°C 86% 2.3 mph W3.7 kmh W 2.3 mph3.7 kmh 29.33 in993.2 mb - 0.02 in0.5 mm 0.08 in2.0 mm
06:05 PM 46.8°F8.2°C 42.8°F6.0°C 86% 2.3 mph W3.7 kmh W 3.5 mph5.6 kmh 29.33 in993.2 mb - 0.02 in0.5 mm 0.08 in2.0 mm
06:00 PM 46.9°F8.3°C 42.9°F6.1°C 86% 3.5 mph WSW5.6 kmh WSW 3.5 mph5.6 kmh 29.33 in993.2 mb - 0.02 in0.5 mm 0.08 in2.0 mm
05:55 PM 47.0°F8.3°C 43.0°F6.1°C 86% 1.2 mph SW1.9 kmh SW 3.5 mph5.6 kmh 29.32 in992.9 mb - 0.01 in0.3 mm 0.07 in1.8 mm
05:50 PM 47.1°F8.4°C 43.1°F6.2°C 86% 2.3 mph SW3.7 kmh SW 3.5 mph5.6 kmh 29.32 in992.9 mb - 0.02 in0.5 mm 0.07 in1.8 mm
05:45 PM 47.2°F8.4°C 43.2°F6.2°C 86% 3.5 mph WSW5.6 kmh WSW 4.6 mph7.4 kmh 29.32 in992.9 mb - 0.02 in0.5 mm 0.07 in1.8 mm
05:40 PM 47.4°F8.6°C 43.4°F6.3°C 86% 2.3 mph WSW3.7 kmh WSW 3.5 mph5.6 kmh 29.32 in992.9 mb - 0.02 in0.5 mm 0.07 in1.8 mm
05:35 PM 47.4°F8.6°C 43.4°F6.3°C 86% Calm Calm 1.2 mph1.9 kmh 29.33 in993.2 mb - 0.02 in0.5 mm 0.07 in1.8 mm
05:30 PM 47.4°F8.6°C 43.4°F6.3°C 86% 1.2 mph ESE1.9 kmh ESE 3.5 mph5.6 kmh 29.33 in993.2 mb - 0.02 in0.5 mm 0.07 in1.8 mm
05:25 PM 47.4°F8.6°C 43.4°F6.3°C 86% Calm Calm 2.3 mph3.7 kmh 29.33 in993.2 mb - 0.02 in0.5 mm 0.07 in1.8 mm
05:20 PM 47.6°F8.7°C 43.3°F6.3°C 85% 1.2 mph ESE1.9 kmh ESE 2.3 mph3.7 kmh 29.33 in993.2 mb - 0.02 in0.5 mm 0.07 in1.8 mm
05:15 PM 47.8°F8.8°C 43.5°F6.4°C 85% 2.3 mph E3.7 kmh E 3.5 mph5.6 kmh 29.33 in993.2 mb - 0.02 in0.5 mm 0.07 in1.8 mm
05:10 PM 47.9°F8.8°C 43.3°F6.3°C 84% 1.2 mph E1.9 kmh E 2.3 mph3.7 kmh 29.33 in993.2 mb - 0.02 in0.5 mm 0.07 in1.8 mm
05:05 PM 48.1°F8.9°C 43.5°F6.4°C 84% 3.5 mph E5.6 kmh E 5.8 mph9.3 kmh 29.33 in993.2 mb - 0.02 in0.5 mm 0.07 in1.8 mm
05:00 PM 48.3°F9.1°C 43.7°F6.5°C 84% 1.2 mph ENE1.9 kmh ENE 2.3 mph3.7 kmh 29.33 in993.2 mb - 0.02 in0.5 mm 0.07 in1.8 mm
04:55 PM 48.5°F9.2°C 43.9°F6.6°C 84% 2.3 mph E3.7 kmh E 3.5 mph5.6 kmh 29.33 in993.2 mb - 0.02 in0.5 mm 0.07 in1.8 mm
04:50 PM 48.5°F9.2°C 43.6°F6.4°C 83% 4.6 mph E7.4 kmh E 5.8 mph9.3 kmh 29.33 in993.2 mb - 0.01 in0.3 mm 0.06 in1.5 mm
04:45 PM 48.4°F9.1°C 43.8°F6.6°C 84% 5.8 mph ESE9.3 kmh ESE 6.9 mph11.1 kmh 29.33 in993.2 mb - 0.02 in0.5 mm 0.06 in1.5 mm
04:40 PM 48.4°F9.1°C 43.8°F6.6°C 84% 2.3 mph ENE3.7 kmh ENE 3.5 mph5.6 kmh 29.33 in993.2 mb - 0.02 in0.5 mm 0.06 in1.5 mm
04:35 PM 48.5°F9.2°C 43.9°F6.6°C 84% 4.6 mph S7.4 kmh S 5.8 mph9.3 kmh 29.33 in993.2 mb - 0.02 in0.5 mm 0.06 in1.5 mm
04:30 PM 48.4°F9.1°C 43.8°F6.6°C 84% 2.3 mph SE3.7 kmh SE 3.5 mph5.6 kmh 29.32 in992.9 mb - 0.02 in0.5 mm 0.05 in1.3 mm
04:25 PM 48.4°F9.1°C 43.8°F6.6°C 84% 3.5 mph NE5.6 kmh NE 3.5 mph5.6 kmh 29.33 in993.2 mb - 0.02 in0.5 mm 0.05 in1.3 mm
04:20 PM 48.5°F9.2°C 44.2°F6.8°C 85% 6.9 mph E11.1 kmh E 9.2 mph14.8 kmh 29.32 in992.9 mb - 0.02 in0.5 mm 0.05 in1.3 mm
04:15 PM 48.6°F9.2°C 44.3°F6.8°C 85% 5.8 mph E9.3 kmh E 6.9 mph11.1 kmh 29.32 in992.9 mb - 0.02 in0.5 mm 0.05 in1.3 mm
04:10 PM 48.9°F9.4°C 44.6°F7.0°C 85% 2.3 mph SE3.7 kmh SE 3.5 mph5.6 kmh 29.32 in992.9 mb - 0.02 in0.5 mm 0.05 in1.3 mm
04:05 PM 49.1°F9.5°C 44.8°F7.1°C 85% 1.2 mph SE1.9 kmh SE 2.3 mph3.7 kmh 29.32 in992.9 mb - 0.02 in0.5 mm 0.05 in1.3 mm
04:00 PM 49.4°F9.7°C 44.8°F7.1°C 84% 2.3 mph SE3.7 kmh SE 3.5 mph5.6 kmh 29.32 in992.9 mb - 0.02 in0.5 mm 0.05 in1.3 mm
03:55 PM 49.7°F9.8°C 45.4°F7.4°C 85% 2.3 mph SE3.7 kmh SE 3.5 mph5.6 kmh 29.32 in992.9 mb - 0.02 in0.5 mm 0.05 in1.3 mm
03:50 PM 50.0°F10.0°C 45.4°F7.4°C 84% 1.2 mph ESE1.9 kmh ESE 2.3 mph3.7 kmh 29.32 in992.9 mb - 0.02 in0.5 mm 0.05 in1.3 mm
03:45 PM 50.3°F10.2°C 45.6°F7.6°C 84% 2.3 mph S3.7 kmh S 3.5 mph5.6 kmh 29.32 in992.9 mb - 0.02 in0.5 mm 0.04 in1.0 mm
03:40 PM 50.5°F10.3°C 45.5°F7.5°C 83% 2.3 mph E3.7 kmh E 3.5 mph5.6 kmh 29.32 in992.9 mb - 0.02 in0.5 mm 0.04 in1.0 mm
03:35 PM 50.7°F10.4°C 45.4°F7.4°C 82% 1.2 mph E1.9 kmh E 2.3 mph3.7 kmh 29.32 in992.9 mb - 0.01 in0.3 mm 0.03 in0.8 mm
03:30 PM 50.9°F10.5°C 45.6°F7.6°C 82% 4.6 mph E7.4 kmh E 8.1 mph13.0 kmh 29.32 in992.9 mb - 0.01 in0.3 mm 0.03 in0.8 mm
03:25 PM 51.2°F10.7°C 45.6°F7.6°C 81% 6.9 mph ESE11.1 kmh ESE 9.2 mph14.8 kmh 29.32 in992.9 mb - 0.01 in0.3 mm 0.03 in0.8 mm
03:20 PM 51.4°F10.8°C 45.4°F7.4°C 80% 3.5 mph SE5.6 kmh SE 8.1 mph13.0 kmh 29.32 in992.9 mb - 0.01 in0.3 mm 0.03 in0.8 mm
03:15 PM 51.6°F10.9°C 45.3°F7.4°C 79% 4.6 mph ESE7.4 kmh ESE 4.6 mph7.4 kmh 29.32 in992.9 mb - 0.01 in0.3 mm 0.03 in0.8 mm
03:10 PM 51.8°F11.0°C 45.8°F7.7°C 80% 9.2 mph E14.8 kmh E 11.5 mph18.5 kmh 29.32 in992.9 mb - 0.00 in0.0 mm 0.03 in0.8 mm
03:05 PM 51.9°F11.1°C 46.3°F7.9°C 81% 3.5 mph E5.6 kmh E 4.6 mph7.4 kmh 29.32 in992.9 mb - 0.00 in0.0 mm 0.03 in0.8 mm
03:00 PM 52.2°F11.2°C 46.9°F8.3°C 82% 4.6 mph NNE7.4 kmh NNE 8.1 mph13.0 kmh 29.32 in992.9 mb - 0.00 in0.0 mm 0.03 in0.8 mm
02:55 PM 52.3°F11.3°C 47.0°F8.3°C 82% 1.2 mph SE1.9 kmh SE 2.3 mph3.7 kmh 29.31 in992.6 mb - 0.00 in0.0 mm 0.03 in0.8 mm
02:50 PM 52.4°F11.3°C 46.4°F8.0°C 80% 2.3 mph SE3.7 kmh SE 3.5 mph5.6 kmh 29.31 in992.6 mb - 0.00 in0.0 mm 0.03 in0.8 mm
02:45 PM 52.6°F11.4°C 46.6°F8.1°C 80% 1.2 mph N1.9 kmh N 2.3 mph3.7 kmh 29.31 in992.6 mb - 0.00 in0.0 mm 0.03 in0.8 mm
02:40 PM 52.6°F11.4°C 46.6°F8.1°C 80% 1.2 mph NNE1.9 kmh NNE 3.5 mph5.6 kmh 29.31 in992.6 mb - 0.00 in0.0 mm 0.03 in0.8 mm
02:35 PM 52.8°F11.6°C 46.8°F8.2°C 80% 3.5 mph NNE5.6 kmh NNE 3.5 mph5.6 kmh 29.31 in992.6 mb - 0.00 in0.0 mm 0.03 in0.8 mm
02:30 PM 52.8°F11.6°C 46.5°F8.1°C 79% 3.5 mph E5.6 kmh E 6.9 mph11.1 kmh 29.31 in992.6 mb - 0.00 in0.0 mm 0.03 in0.8 mm
02:25 PM 52.9°F11.6°C 47.2°F8.4°C 81% 3.5 mph NE5.6 kmh NE 5.8 mph9.3 kmh 29.31 in992.6 mb - 0.00 in0.0 mm 0.03 in0.8 mm
02:20 PM 52.8°F11.6°C 47.8°F8.8°C 83% 1.2 mph NW1.9 kmh NW 3.5 mph5.6 kmh 29.31 in992.6 mb - 0.00 in0.0 mm 0.03 in0.8 mm
02:15 PM 52.6°F11.4°C 46.6°F8.1°C 80% 2.3 mph NW3.7 kmh NW 3.5 mph5.6 kmh 29.31 in992.6 mb - 0.00 in0.0 mm 0.03 in0.8 mm
02:10 PM 52.6°F11.4°C 47.3°F8.5°C 82% 2.3 mph NW3.7 kmh NW 2.3 mph3.7 kmh 29.31 in992.6 mb - 0.00 in0.0 mm 0.03 in0.8 mm
02:05 PM 52.4°F11.3°C 47.1°F8.4°C 82% 1.2 mph ENE1.9 kmh ENE 3.5 mph5.6 kmh 29.32 in992.9 mb - 0.00 in0.0 mm 0.03 in0.8 mm
02:00 PM 52.3°F11.3°C 47.3°F8.5°C 83% 3.5 mph E5.6 kmh E 4.6 mph7.4 kmh 29.32 in992.9 mb - 0.00 in0.0 mm 0.03 in0.8 mm
01:55 PM 52.0°F11.1°C 47.0°F8.3°C 83% 1.2 mph NE1.9 kmh NE 1.2 mph1.9 kmh 29.32 in992.9 mb - 0.00 in0.0 mm 0.03 in0.8 mm
01:50 PM 51.7°F10.9°C 46.7°F8.2°C 83% 3.5 mph NNE5.6 kmh NNE 4.6 mph7.4 kmh 29.32 in992.9 mb - 0.00 in0.0 mm 0.03 in0.8 mm
01:45 PM 51.8°F11.0°C 47.4°F8.6°C 85% 2.3 mph N3.7 kmh N 3.5 mph5.6 kmh 29.32 in992.9 mb - 0.00 in0.0 mm 0.03 in0.8 mm
01:40 PM 51.9°F11.1°C 47.5°F8.6°C 85% 3.5 mph NW5.6 kmh NW 4.6 mph7.4 kmh 29.32 in992.9 mb - 0.00 in0.0 mm 0.03 in0.8 mm
01:35 PM 51.7°F10.9°C 47.7°F8.7°C 86% 1.2 mph E1.9 kmh E 2.3 mph3.7 kmh 29.32 in992.9 mb - 0.00 in0.0 mm 0.03 in0.8 mm
01:30 PM 51.6°F10.9°C 47.5°F8.6°C 86% Calm Calm -- 29.32 in992.9 mb - 0.00 in0.0 mm 0.03 in0.8 mm
01:25 PM 51.2°F10.7°C 47.2°F8.4°C 86% Calm Calm 1.2 mph1.9 kmh 29.32 in992.9 mb - 0.00 in0.0 mm 0.03 in0.8 mm
01:20 PM 51.1°F10.6°C 47.1°F8.4°C 86% Calm Calm -- 29.32 in992.9 mb - 0.01 in0.3 mm 0.03 in0.8 mm
01:15 PM 51.2°F10.7°C 47.2°F8.4°C 86% Calm Calm -- 29.32 in992.9 mb - 0.01 in0.3 mm 0.03 in0.8 mm
01:10 PM 51.0°F10.6°C 47.0°F8.3°C 86% Calm Calm -- 29.32 in992.9 mb - 0.01 in0.3 mm 0.03 in0.8 mm
01:05 PM 50.8°F10.4°C 46.8°F8.2°C 86% 1.2 mph SSW1.9 kmh SSW 2.3 mph3.7 kmh 29.32 in992.9 mb - 0.01 in0.3 mm 0.03 in0.8 mm
01:00 PM 50.7°F10.4°C 46.6°F8.1°C 86% 1.2 mph SSW1.9 kmh SSW 2.3 mph3.7 kmh 29.32 in992.9 mb - 0.01 in0.3 mm 0.03 in0.8 mm
12:55 PM 50.7°F10.4°C 46.7°F8.2°C 86% 1.2 mph SSW1.9 kmh SSW 1.2 mph1.9 kmh 29.32 in992.9 mb - 0.01 in0.3 mm 0.03 in0.8 mm
12:50 PM 51.0°F10.6°C 46.9°F8.3°C 86% Calm Calm -- 29.32 in992.9 mb - 0.01 in0.3 mm 0.03 in0.8 mm
12:45 PM 50.8°F10.4°C 46.8°F8.2°C 86% Calm Calm -- 29.32 in992.9 mb - 0.01 in0.3 mm 0.03 in0.8 mm
12:40 PM 50.8°F10.4°C 46.8°F8.2°C 86% Calm Calm -- 29.33 in993.2 mb - 0.01 in0.3 mm 0.03 in0.8 mm
12:35 PM 51.1°F10.6°C 46.7°F8.2°C 85% Calm Calm -- 29.33 in993.2 mb - 0.01 in0.3 mm 0.03 in0.8 mm
12:30 PM 51.4°F10.8°C 47.0°F8.3°C 85% 1.2 mph SSE1.9 kmh SSE 1.2 mph1.9 kmh 29.33 in993.2 mb - 0.01 in0.3 mm 0.03 in0.8 mm
12:25 PM 51.5°F10.8°C 46.8°F8.2°C 84% 2.3 mph SSE3.7 kmh SSE 2.3 mph3.7 kmh 29.33 in993.2 mb - 0.01 in0.3 mm 0.03 in0.8 mm
12:20 PM 51.8°F11.0°C 47.1°F8.4°C 84% 2.3 mph SSE3.7 kmh SSE 4.6 mph7.4 kmh 29.33 in993.2 mb - 0.00 in0.0 mm 0.02 in0.5 mm
12:15 PM 52.1°F11.2°C 47.1°F8.4°C 83% 3.5 mph SSE5.6 kmh SSE 4.6 mph7.4 kmh 29.34 in993.6 mb - 0.00 in0.0 mm 0.02 in0.5 mm
12:10 PM 52.3°F11.3°C 46.9°F8.3°C 82% 2.3 mph WSW3.7 kmh WSW 3.5 mph5.6 kmh 29.33 in993.2 mb - 0.00 in0.0 mm 0.02 in0.5 mm
12:05 PM 52.6°F11.4°C 47.2°F8.4°C 82% 1.2 mph WSW1.9 kmh WSW 3.5 mph5.6 kmh 29.33 in993.2 mb - 0.00 in0.0 mm 0.02 in0.5 mm
12:00 PM 52.5°F11.4°C 47.5°F8.6°C 83% 1.2 mph WSW1.9 kmh WSW 2.3 mph3.7 kmh 29.33 in993.2 mb - 0.00 in0.0 mm 0.02 in0.5 mm
11:55 AM 52.4°F11.3°C 47.4°F8.6°C 83% 1.2 mph WSW1.9 kmh WSW 3.5 mph5.6 kmh 29.34 in993.6 mb - 0.00 in0.0 mm 0.02 in0.5 mm
11:50 AM 52.2°F11.2°C 47.2°F8.4°C 83% 1.2 mph WSW1.9 kmh WSW 3.5 mph5.6 kmh 29.34 in993.6 mb - 0.00 in0.0 mm 0.02 in0.5 mm
11:45 AM 52.1°F11.2°C 47.1°F8.4°C 83% 2.3 mph WSW3.7 kmh WSW 3.5 mph5.6 kmh 29.34 in993.6 mb - 0.00 in0.0 mm 0.02 in0.5 mm
11:40 AM 52.1°F11.2°C 47.4°F8.6°C 84% Calm Calm -- 29.34 in993.6 mb - 0.00 in0.0 mm 0.02 in0.5 mm
11:35 AM 51.7°F10.9°C 47.0°F8.3°C 84% Calm Calm -- 29.34 in993.6 mb - 0.00 in0.0 mm 0.02 in0.5 mm
11:30 AM 51.4°F10.8°C 47.1°F8.4°C 85% 1.2 mph WSW1.9 kmh WSW 3.5 mph5.6 kmh 29.34 in993.6 mb - 0.00 in0.0 mm 0.02 in0.5 mm
11:25 AM 51.2°F10.7°C 46.8°F8.2°C 85% 1.2 mph WSW1.9 kmh WSW 2.3 mph3.7 kmh 29.34 in993.6 mb - 0.00 in0.0 mm 0.02 in0.5 mm
11:20 AM 50.9°F10.5°C 46.5°F8.1°C 85% 1.2 mph WSW1.9 kmh WSW 3.5 mph5.6 kmh 29.34 in993.6 mb - 0.00 in0.0 mm 0.02 in0.5 mm
11:15 AM 50.8°F10.4°C 46.5°F8.1°C 85% 2.3 mph WSW3.7 kmh WSW 3.5 mph5.6 kmh 29.34 in993.6 mb - 0.00 in0.0 mm 0.02 in0.5 mm
11:10 AM 50.8°F10.4°C 46.8°F8.2°C 86% 2.3 mph SW3.7 kmh SW 3.5 mph5.6 kmh 29.34 in993.6 mb - 0.00 in0.0 mm 0.02 in0.5 mm
11:05 AM 50.7°F10.4°C 46.6°F8.1°C 86% 2.3 mph SW3.7 kmh SW 3.5 mph5.6 kmh 29.34 in993.6 mb - 0.00 in0.0 mm 0.02 in0.5 mm
11:00 AM 50.6°F10.3°C 46.6°F8.1°C 86% 2.3 mph SW3.7 kmh SW 3.5 mph5.6 kmh 29.34 in993.6 mb - 0.00 in0.0 mm 0.02 in0.5 mm
10:55 AM 50.6°F10.3°C 46.6°F8.1°C 86% 1.2 mph SW1.9 kmh SW 3.5 mph5.6 kmh 29.34 in993.6 mb - 0.00 in0.0 mm 0.02 in0.5 mm
10:50 AM 50.8°F10.4°C 46.8°F8.2°C 86% 1.2 mph SW1.9 kmh SW 3.5 mph5.6 kmh 29.34 in993.6 mb - 0.00 in0.0 mm 0.02 in0.5 mm
10:45 AM 50.8°F10.4°C 46.8°F8.2°C 86% 2.3 mph SW3.7 kmh SW 3.5 mph5.6 kmh 29.34 in993.6 mb - 0.00 in0.0 mm 0.02 in0.5 mm
10:40 AM 50.3°F10.2°C 46.3°F7.9°C 86% 2.3 mph SW3.7 kmh SW 3.5 mph5.6 kmh 29.34 in993.6 mb - 0.00 in0.0 mm 0.02 in0.5 mm
10:35 AM 49.8°F9.9°C 45.5°F7.5°C 85% 1.2 mph SW1.9 kmh SW 2.3 mph3.7 kmh 29.34 in993.6 mb - 0.00 in0.0 mm 0.02 in0.5 mm
10:30 AM 49.5°F9.7°C 45.2°F7.3°C 85% Calm Calm -- 29.34 in993.6 mb - 0.00 in0.0 mm 0.02 in0.5 mm
10:25 AM 49.1°F9.5°C 44.8°F7.1°C 85% Calm Calm -- 29.34 in993.6 mb - 0.00 in0.0 mm 0.02 in0.5 mm
10:20 AM 48.8°F9.3°C 44.5°F6.9°C 85% Calm Calm -- 29.34 in993.6 mb - 0.00 in0.0 mm 0.02 in0.5 mm
10:15 AM 48.6°F9.2°C 44.3°F6.8°C 85% Calm Calm -- 29.34 in993.6 mb - 0.00 in0.0 mm 0.02 in0.5 mm
10:10 AM 48.7°F9.3°C 44.4°F6.9°C 85% Calm Calm 1.2 mph1.9 kmh 29.34 in993.6 mb - 0.00 in0.0 mm 0.02 in0.5 mm
10:05 AM 48.6°F9.2°C 44.3°F6.8°C 85% 1.2 mph SSW1.9 kmh SSW 1.2 mph1.9 kmh 29.34 in993.6 mb - 0.00 in0.0 mm 0.02 in0.5 mm
10:00 AM 48.4°F9.1°C 44.1°F6.7°C 85% Calm Calm 1.2 mph1.9 kmh 29.34 in993.6 mb - 0.00 in0.0 mm 0.02 in0.5 mm
09:55 AM 48.5°F9.2°C 44.2°F6.8°C 85% 2.3 mph SW3.7 kmh SW 3.5 mph5.6 kmh 29.34 in993.6 mb - 0.00 in0.0 mm 0.02 in0.5 mm
09:50 AM 48.5°F9.2°C 44.1°F6.7°C 85% Calm Calm 1.2 mph1.9 kmh 29.34 in993.6 mb - 0.00 in0.0 mm 0.02 in0.5 mm
09:45 AM 48.4°F9.1°C 44.1°F6.7°C 85% 2.3 mph SW3.7 kmh SW 3.5 mph5.6 kmh 29.34 in993.6 mb - 0.00 in0.0 mm 0.02 in0.5 mm
09:40 AM 48.3°F9.1°C 44.0°F6.7°C 85% Calm Calm -- 29.34 in993.6 mb - 0.00 in0.0 mm 0.02 in0.5 mm
09:35 AM 48.2°F9.0°C 44.5°F6.9°C 87% 1.2 mph SW1.9 kmh SW 2.3 mph3.7 kmh 29.34 in993.6 mb - 0.00 in0.0 mm 0.02 in0.5 mm
09:30 AM 48.1°F8.9°C 43.8°F6.6°C 85% 1.2 mph SSW1.9 kmh SSW 2.3 mph3.7 kmh 29.34 in993.6 mb - 0.00 in0.0 mm 0.02 in0.5 mm
09:25 AM 47.9°F8.8°C 43.6°F6.4°C 85% 1.2 mph SSW1.9 kmh SSW 2.3 mph3.7 kmh 29.35 in993.9 mb - 0.00 in0.0 mm 0.02 in0.5 mm
09:20 AM 47.7°F8.7°C 43.4°F6.3°C 85% Calm Calm 2.3 mph3.7 kmh 29.35 in993.9 mb - 0.00 in0.0 mm 0.02 in0.5 mm
09:15 AM 47.4°F8.6°C 43.1°F6.2°C 85% Calm Calm -- 29.35 in993.9 mb - 0.00 in0.0 mm 0.02 in0.5 mm
09:10 AM 47.2°F8.4°C 43.0°F6.1°C 85% Calm Calm -- 29.35 in993.9 mb - 0.00 in0.0 mm 0.02 in0.5 mm
09:05 AM 47.1°F8.4°C 42.9°F6.1°C 85% Calm Calm -- 29.35 in993.9 mb - 0.00 in0.0 mm 0.02 in0.5 mm
09:00 AM 47.1°F8.4°C 42.8°F6.0°C 85% Calm Calm -- 29.35 in993.9 mb - 0.00 in0.0 mm 0.02 in0.5 mm
08:55 AM 46.9°F8.3°C 42.6°F5.9°C 85% Calm Calm -- 29.35 in993.9 mb - 0.00 in0.0 mm 0.02 in0.5 mm
08:50 AM 46.8°F8.2°C 42.5°F5.8°C 85% Calm Calm -- 29.35 in993.9 mb - 0.00 in0.0 mm 0.02 in0.5 mm
08:45 AM 46.7°F8.2°C 42.4°F5.8°C 85% Calm Calm -- 29.35 in993.9 mb - 0.00 in0.0 mm 0.02 in0.5 mm
08:40 AM 46.6°F8.1°C 42.3°F5.7°C 85% Calm Calm -- 29.35 in993.9 mb - 0.00 in0.0 mm 0.02 in0.5 mm
08:35 AM 46.5°F8.1°C 42.2°F5.7°C 85% Calm Calm -- 29.35 in993.9 mb - 0.00 in0.0 mm 0.02 in0.5 mm
08:30 AM 46.4°F8.0°C 42.1°F5.6°C 85% Calm Calm -- 29.35 in993.9 mb - 0.00 in0.0 mm 0.02 in0.5 mm
08:25 AM 46.3°F7.9°C 42.0°F5.6°C 85% Calm Calm -- 29.35 in993.9 mb - 0.00 in0.0 mm 0.02 in0.5 mm
08:20 AM 46.3°F7.9°C 42.0°F5.6°C 85% Calm Calm -- 29.35 in993.9 mb - 0.00 in0.0 mm 0.02 in0.5 mm
08:15 AM 46.2°F7.9°C 41.9°F5.5°C 85% Calm Calm -- 29.35 in993.9 mb - 0.00 in0.0 mm 0.02 in0.5 mm
08:10 AM 46.1°F7.8°C 41.8°F5.4°C 85% Calm Calm -- 29.35 in993.9 mb - 0.00 in0.0 mm 0.02 in0.5 mm
08:05 AM 46.1°F7.8°C 41.8°F5.4°C 85% 2.3 mph ENE3.7 kmh ENE 3.5 mph5.6 kmh 29.35 in993.9 mb - 0.00 in0.0 mm 0.02 in0.5 mm
08:00 AM 46.0°F7.8°C 42.0°F5.6°C 86% Calm Calm -- 29.35 in993.9 mb - 0.00 in0.0 mm 0.02 in0.5 mm
07:55 AM 46.0°F7.8°C 42.0°F5.6°C 86% Calm Calm -- 29.35 in993.9 mb - 0.00 in0.0 mm 0.02 in0.5 mm
07:50 AM 46.0°F7.8°C 42.0°F5.6°C 86% Calm Calm -- 29.35 in993.9 mb - 0.00 in0.0 mm 0.02 in0.5 mm
07:45 AM 46.0°F7.8°C 42.0°F5.6°C 86% Calm Calm -- 29.35 in993.9 mb - 0.00 in0.0 mm 0.02 in0.5 mm
07:40 AM 46.1°F7.8°C 42.1°F5.6°C 86% Calm Calm -- 29.35 in993.9 mb - 0.00 in0.0 mm 0.02 in0.5 mm
07:35 AM 46.1°F7.8°C 42.1°F5.6°C 86% Calm Calm -- 29.35 in993.9 mb - 0.00 in0.0 mm 0.02 in0.5 mm
07:30 AM 46.2°F7.9°C 42.2°F5.7°C 86% Calm Calm -- 29.34 in993.6 mb - 0.00 in0.0 mm 0.02 in0.5 mm
07:25 AM 46.2°F7.9°C 42.2°F5.7°C 86% Calm Calm -- 29.34 in993.6 mb - 0.00 in0.0 mm 0.02 in0.5 mm
07:20 AM 46.3°F7.9°C 42.3°F5.7°C 86% Calm Calm 1.2 mph1.9 kmh 29.34 in993.6 mb - 0.00 in0.0 mm 0.02 in0.5 mm
07:15 AM 46.3°F7.9°C 42.3°F5.7°C 86% 2.3 mph ENE3.7 kmh ENE 3.5 mph5.6 kmh 29.35 in993.9 mb - 0.00 in0.0 mm 0.02 in0.5 mm
07:10 AM 46.2°F7.9°C 41.9°F5.5°C 85% 2.3 mph NE3.7 kmh NE 4.6 mph7.4 kmh 29.35 in993.9 mb - 0.00 in0.0 mm 0.02 in0.5 mm
07:05 AM 46.2°F7.9°C 41.9°F5.5°C 85% 2.3 mph ENE3.7 kmh ENE 3.5 mph5.6 kmh 29.35 in993.9 mb - 0.00 in0.0 mm 0.02 in0.5 mm
07:00 AM 46.1°F7.8°C 41.8°F5.4°C 85% 3.5 mph E5.6 kmh E 3.5 mph5.6 kmh 29.35 in993.9 mb - 0.00 in0.0 mm 0.02 in0.5 mm
06:55 AM 46.1°F7.8°C 42.1°F5.6°C 86% 2.3 mph ENE3.7 kmh ENE 3.5 mph5.6 kmh 29.35 in993.9 mb - 0.00 in0.0 mm 0.02 in0.5 mm
06:50 AM 46.0°F7.8°C 42.0°F5.6°C 86% 1.2 mph NNE1.9 kmh NNE 3.5 mph5.6 kmh 29.35 in993.9 mb - 0.00 in0.0 mm 0.02 in0.5 mm
06:45 AM 46.0°F7.8°C 42.0°F5.6°C 86% 1.2 mph NNE1.9 kmh NNE 3.5 mph5.6 kmh 29.35 in993.9 mb - 0.00 in0.0 mm 0.02 in0.5 mm
06:40 AM 46.0°F7.8°C 42.0°F5.6°C 86% 2.3 mph NNE3.7 kmh NNE 2.3 mph3.7 kmh 29.35 in993.9 mb - 0.00 in0.0 mm 0.02 in0.5 mm
06:35 AM 45.9°F7.7°C 41.9°F5.5°C 86% 1.2 mph NNE1.9 kmh NNE 2.3 mph3.7 kmh 29.34 in993.6 mb - 0.00 in0.0 mm 0.02 in0.5 mm
06:30 AM 45.9°F7.7°C 41.9°F5.5°C 86% 2.3 mph NNE3.7 kmh NNE 2.3 mph3.7 kmh 29.34 in993.6 mb - 0.01 in0.3 mm 0.02 in0.5 mm
06:25 AM 45.9°F7.7°C 41.9°F5.5°C 86% 1.2 mph SE1.9 kmh SE 2.3 mph3.7 kmh 29.34 in993.6 mb - 0.01 in0.3 mm 0.02 in0.5 mm
06:20 AM 45.9°F7.7°C 41.9°F5.5°C 86% 1.2 mph E1.9 kmh E 3.5 mph5.6 kmh 29.34 in993.6 mb - 0.01 in0.3 mm 0.02 in0.5 mm
06:15 AM 46.0°F7.8°C 42.0°F5.6°C 86% Calm Calm -- 29.34 in993.6 mb - 0.01 in0.3 mm 0.02 in0.5 mm
06:10 AM 46.0°F7.8°C 42.0°F5.6°C 86% 1.2 mph ENE1.9 kmh ENE 3.5 mph5.6 kmh 29.34 in993.6 mb - 0.01 in0.3 mm 0.02 in0.5 mm
06:05 AM 46.1°F7.8°C 42.1°F5.6°C 86% 2.3 mph ENE3.7 kmh ENE 2.3 mph3.7 kmh 29.34 in993.6 mb - 0.01 in0.3 mm 0.02 in0.5 mm
06:00 AM 46.1°F7.8°C 42.1°F5.6°C 86% 2.3 mph E3.7 kmh E 3.5 mph5.6 kmh 29.34 in993.6 mb - 0.01 in0.3 mm 0.02 in0.5 mm
05:55 AM 46.1°F7.8°C 42.1°F5.6°C 86% 3.5 mph E5.6 kmh E 3.5 mph5.6 kmh 29.35 in993.9 mb - 0.01 in0.3 mm 0.02 in0.5 mm
05:50 AM 46.0°F7.8°C 42.0°F5.6°C 86% 4.6 mph ENE7.4 kmh ENE 5.8 mph9.3 kmh 29.34 in993.6 mb - 0.01 in0.3 mm 0.02 in0.5 mm
05:45 AM 46.0°F7.8°C 42.0°F5.6°C 86% 2.3 mph NE3.7 kmh NE 3.5 mph5.6 kmh 29.34 in993.6 mb - 0.01 in0.3 mm 0.02 in0.5 mm
05:40 AM 45.9°F7.7°C 42.0°F5.6°C 86% Calm Calm -- 29.34 in993.6 mb - 0.01 in0.3 mm 0.02 in0.5 mm
05:35 AM 45.9°F7.7°C 41.9°F5.5°C 86% Calm Calm -- 29.34 in993.6 mb - 0.01 in0.3 mm 0.02 in0.5 mm
05:30 AM 45.8°F7.7°C 41.9°F5.5°C 86% Calm Calm -- 29.34 in993.6 mb - 0.00 in0.0 mm 0.01 in0.3 mm
05:25 AM 45.9°F7.7°C 41.9°F5.5°C 86% 1.2 mph NE1.9 kmh NE 2.3 mph3.7 kmh 29.34 in993.6 mb - 0.00 in0.0 mm 0.01 in0.3 mm
05:20 AM 46.0°F7.8°C 42.0°F5.6°C 86% 1.2 mph ENE1.9 kmh ENE 2.3 mph3.7 kmh 29.34 in993.6 mb - 0.00 in0.0 mm 0.01 in0.3 mm
05:15 AM 46.1°F7.8°C 42.1°F5.6°C 86% 1.2 mph ENE1.9 kmh ENE 2.3 mph3.7 kmh 29.34 in993.6 mb - 0.00 in0.0 mm 0.01 in0.3 mm
05:10 AM 46.1°F7.8°C 42.1°F5.6°C 86% 2.3 mph ENE3.7 kmh ENE 2.3 mph3.7 kmh 29.34 in993.6 mb - 0.00 in0.0 mm 0.01 in0.3 mm
05:05 AM 46.2°F7.9°C 42.2°F5.7°C 86% 2.3 mph NE3.7 kmh NE 3.5 mph5.6 kmh 29.35 in993.9 mb - 0.00 in0.0 mm 0.01 in0.3 mm
05:00 AM 46.2°F7.9°C 42.2°F5.7°C 86% 1.2 mph ENE1.9 kmh ENE 2.3 mph3.7 kmh 29.35 in993.9 mb - 0.00 in0.0 mm 0.01 in0.3 mm
04:55 AM 46.2°F7.9°C 42.2°F5.7°C 86% 2.3 mph ENE3.7 kmh ENE 3.5 mph5.6 kmh 29.35 in993.9 mb - 0.00 in0.0 mm 0.01 in0.3 mm
04:50 AM 46.2°F7.9°C 42.2°F5.7°C 86% 1.2 mph E1.9 kmh E 2.3 mph3.7 kmh 29.35 in993.9 mb - 0.00 in0.0 mm 0.01 in0.3 mm
04:45 AM 46.3°F7.9°C 42.3°F5.7°C 86% 2.3 mph E3.7 kmh E 3.5 mph5.6 kmh 29.35 in993.9 mb - 0.00 in0.0 mm 0.01 in0.3 mm
04:40 AM 46.4°F8.0°C 42.4°F5.8°C 86% 2.3 mph E3.7 kmh E 3.5 mph5.6 kmh 29.35 in993.9 mb - 0.00 in0.0 mm 0.01 in0.3 mm
04:35 AM 46.5°F8.1°C 42.5°F5.8°C 86% 2.3 mph ESE3.7 kmh ESE 3.5 mph5.6 kmh 29.35 in993.9 mb - 0.00 in0.0 mm 0.01 in0.3 mm
04:30 AM 46.7°F8.2°C 42.7°F5.9°C 86% 2.3 mph ESE3.7 kmh ESE 3.5 mph5.6 kmh 29.35 in993.9 mb - 0.00 in0.0 mm 0.01 in0.3 mm
04:25 AM 46.8°F8.2°C 42.8°F6.0°C 86% 1.2 mph ENE1.9 kmh ENE 2.3 mph3.7 kmh 29.35 in993.9 mb - 0.00 in0.0 mm 0.01 in0.3 mm
04:20 AM 46.9°F8.3°C 42.9°F6.1°C 86% 2.3 mph NE3.7 kmh NE 2.3 mph3.7 kmh 29.35 in993.9 mb - 0.00 in0.0 mm 0.01 in0.3 mm
04:15 AM 46.9°F8.3°C 42.9°F6.1°C 86% 1.2 mph E1.9 kmh E 2.3 mph3.7 kmh 29.36 in994.2 mb - 0.00 in0.0 mm 0.01 in0.3 mm
04:10 AM 47.0°F8.3°C 43.0°F6.1°C 86% 2.3 mph E3.7 kmh E 3.5 mph5.6 kmh 29.36 in994.2 mb - 0.00 in0.0 mm 0.01 in0.3 mm
04:05 AM 46.8°F8.2°C 42.8°F6.0°C 86% 3.5 mph E5.6 kmh E 3.5 mph5.6 kmh 29.36 in994.2 mb - 0.00 in0.0 mm 0.01 in0.3 mm
04:00 AM 46.9°F8.3°C 42.9°F6.1°C 86% 1.2 mph SE1.9 kmh SE 2.3 mph3.7 kmh 29.35 in993.9 mb - 0.00 in0.0 mm 0.01 in0.3 mm
03:55 AM 46.9°F8.3°C 42.9°F6.1°C 86% 1.2 mph E1.9 kmh E 3.5 mph5.6 kmh 29.35 in993.9 mb - 0.00 in0.0 mm 0.01 in0.3 mm
03:50 AM 46.9°F8.3°C 42.9°F6.1°C 86% 1.2 mph E1.9 kmh E 2.3 mph3.7 kmh 29.35 in993.9 mb - 0.00 in0.0 mm 0.01 in0.3 mm
03:45 AM 47.0°F8.3°C 43.0°F6.1°C 86% 1.2 mph E1.9 kmh E 3.5 mph5.6 kmh 29.35 in993.9 mb - 0.00 in0.0 mm 0.01 in0.3 mm
03:40 AM 47.0°F8.3°C 43.0°F6.1°C 86% 1.2 mph E1.9 kmh E 2.3 mph3.7 kmh 29.35 in993.9 mb - 0.00 in0.0 mm 0.01 in0.3 mm
03:35 AM 47.1°F8.4°C 43.1°F6.2°C 86% 2.3 mph E3.7 kmh E 3.5 mph5.6 kmh 29.35 in993.9 mb - 0.00 in0.0 mm 0.01 in0.3 mm
03:30 AM 47.1°F8.4°C 43.1°F6.2°C 86% 1.2 mph E1.9 kmh E 2.3 mph3.7 kmh 29.36 in994.2 mb - 0.00 in0.0 mm 0.01 in0.3 mm
03:25 AM 47.1°F8.4°C 43.1°F6.2°C 86% 2.3 mph E3.7 kmh E 3.5 mph5.6 kmh 29.36 in994.2 mb - 0.00 in0.0 mm 0.01 in0.3 mm
03:20 AM 47.2°F8.4°C 43.2°F6.2°C 86% 2.3 mph E3.7 kmh E 3.5 mph5.6 kmh 29.36 in994.2 mb - 0.00 in0.0 mm 0.01 in0.3 mm
03:15 AM 47.2°F8.4°C 43.2°F6.2°C 86% 2.3 mph E3.7 kmh E 3.5 mph5.6 kmh 29.36 in994.2 mb - 0.00 in0.0 mm 0.01 in0.3 mm
03:10 AM 47.2°F8.4°C 43.2°F6.2°C 86% 2.3 mph E3.7 kmh E 3.5 mph5.6 kmh 29.36 in994.2 mb - 0.00 in0.0 mm 0.01 in0.3 mm
03:05 AM 47.2°F8.4°C 43.2°F6.2°C 86% 2.3 mph E3.7 kmh E 3.5 mph5.6 kmh 29.36 in994.2 mb - 0.00 in0.0 mm 0.01 in0.3 mm
03:00 AM 47.2°F8.4°C 43.2°F6.2°C 86% 2.3 mph E3.7 kmh E 3.5 mph5.6 kmh 29.36 in994.2 mb - 0.00 in0.0 mm 0.01 in0.3 mm
02:55 AM 47.3°F8.5°C 43.3°F6.3°C 86% 1.2 mph E1.9 kmh E 2.3 mph3.7 kmh 29.36 in994.2 mb - 0.00 in0.0 mm 0.01 in0.3 mm
02:50 AM 47.3°F8.5°C 43.4°F6.3°C 86% Calm Calm 1.2 mph1.9 kmh 29.36 in994.2 mb - 0.00 in0.0 mm 0.01 in0.3 mm
02:45 AM 47.4°F8.6°C 43.4°F6.3°C 86% 3.5 mph E5.6 kmh E 4.6 mph7.4 kmh 29.36 in994.2 mb - 0.00 in0.0 mm 0.01 in0.3 mm
02:40 AM 47.4°F8.6°C 43.4°F6.3°C 86% 3.5 mph ESE5.6 kmh ESE 4.6 mph7.4 kmh 29.36 in994.2 mb - 0.00 in0.0 mm 0.01 in0.3 mm
02:35 AM 47.4°F8.6°C 43.4°F6.3°C 86% 3.5 mph E5.6 kmh E 3.5 mph5.6 kmh 29.36 in994.2 mb - 0.00 in0.0 mm 0.01 in0.3 mm
02:30 AM 47.5°F8.6°C 43.5°F6.4°C 86% 5.8 mph E9.3 kmh E 8.1 mph13.0 kmh 29.36 in994.2 mb - 0.00 in0.0 mm 0.01 in0.3 mm
02:25 AM 47.5°F8.6°C 43.5°F6.4°C 86% 3.5 mph E5.6 kmh E 4.6 mph7.4 kmh 29.36 in994.2 mb - 0.00 in0.0 mm 0.01 in0.3 mm
02:20 AM 47.5°F8.6°C 43.5°F6.4°C 86% 4.6 mph E7.4 kmh E 6.9 mph11.1 kmh 29.36 in994.2 mb - 0.00 in0.0 mm 0.01 in0.3 mm
02:15 AM 47.6°F8.7°C 43.6°F6.4°C 86% 3.5 mph ESE5.6 kmh ESE 3.5 mph5.6 kmh 29.36 in994.2 mb - 0.00 in0.0 mm 0.01 in0.3 mm
02:10 AM 47.7°F8.7°C 43.7°F6.5°C 86% 3.5 mph E5.6 kmh E 5.8 mph9.3 kmh 29.36 in994.2 mb - 0.00 in0.0 mm 0.01 in0.3 mm
02:05 AM 47.8°F8.8°C 43.8°F6.6°C 86% 3.5 mph SE5.6 kmh SE 8.1 mph13.0 kmh 29.36 in994.2 mb - 0.00 in0.0 mm 0.01 in0.3 mm
02:00 AM 47.7°F8.7°C 43.7°F6.5°C 86% 3.5 mph E5.6 kmh E 6.9 mph11.1 kmh 29.36 in994.2 mb - 0.00 in0.0 mm 0.01 in0.3 mm
01:55 AM 47.7°F8.7°C 43.7°F6.5°C 86% 3.5 mph E5.6 kmh E 4.6 mph7.4 kmh 29.36 in994.2 mb - 0.00 in0.0 mm 0.01 in0.3 mm
01:50 AM 47.7°F8.7°C 43.7°F6.5°C 86% 4.6 mph E7.4 kmh E 8.1 mph13.0 kmh 29.36 in994.2 mb - 0.00 in0.0 mm 0.01 in0.3 mm
01:45 AM 47.8°F8.8°C 43.8°F6.6°C 86% 2.3 mph E3.7 kmh E 3.5 mph5.6 kmh 29.36 in994.2 mb - 0.00 in0.0 mm 0.01 in0.3 mm
01:40 AM 47.8°F8.8°C 43.8°F6.6°C 86% 2.3 mph ESE3.7 kmh ESE 5.8 mph9.3 kmh 29.36 in994.2 mb - 0.00 in0.0 mm 0.01 in0.3 mm
01:35 AM 47.8°F8.8°C 43.8°F6.6°C 86% 3.5 mph ESE5.6 kmh ESE 6.9 mph11.1 kmh 29.37 in994.6 mb - 0.00 in0.0 mm 0.01 in0.3 mm
01:30 AM 47.9°F8.8°C 43.9°F6.6°C 86% 4.6 mph ESE7.4 kmh ESE 6.9 mph11.1 kmh 29.36 in994.2 mb - 0.00 in0.0 mm 0.01 in0.3 mm
01:25 AM 47.9°F8.8°C 43.9°F6.6°C 86% 3.5 mph E5.6 kmh E 5.8 mph9.3 kmh 29.37 in994.6 mb - 0.00 in0.0 mm 0.01 in0.3 mm
01:20 AM 47.9°F8.8°C 43.9°F6.6°C 86% 2.3 mph E3.7 kmh E 3.5 mph5.6 kmh 29.37 in994.6 mb - 0.00 in0.0 mm 0.01 in0.3 mm
01:15 AM 48.0°F8.9°C 44.0°F6.7°C 86% 2.3 mph E3.7 kmh E 3.5 mph5.6 kmh 29.37 in994.6 mb - 0.01 in0.3 mm 0.01 in0.3 mm
01:10 AM 48.0°F8.9°C 44.0°F6.7°C 86% 3.5 mph E5.6 kmh E 5.8 mph9.3 kmh 29.37 in994.6 mb - 0.01 in0.3 mm 0.01 in0.3 mm
01:05 AM 48.0°F8.9°C 44.0°F6.7°C 86% 3.5 mph E5.6 kmh E 3.5 mph5.6 kmh 29.37 in994.6 mb - 0.01 in0.3 mm 0.01 in0.3 mm
01:00 AM 48.0°F8.9°C 44.0°F6.7°C 86% 3.5 mph E5.6 kmh E 3.5 mph5.6 kmh 29.37 in994.6 mb - 0.01 in0.3 mm 0.01 in0.3 mm
12:55 AM 48.1°F8.9°C 44.1°F6.7°C 86% 3.5 mph SE5.6 kmh SE 5.8 mph9.3 kmh 29.38 in994.9 mb - 0.01 in0.3 mm 0.01 in0.3 mm
12:50 AM 48.1°F8.9°C 44.1°F6.7°C 86% 2.3 mph E3.7 kmh E 3.5 mph5.6 kmh 29.38 in994.9 mb - 0.01 in0.3 mm 0.01 in0.3 mm
12:45 AM 48.2°F9.0°C 44.2°F6.8°C 86% 2.3 mph SE3.7 kmh SE 3.5 mph5.6 kmh 29.37 in994.6 mb - 0.01 in0.3 mm 0.01 in0.3 mm
12:40 AM 48.2°F9.0°C 44.2°F6.8°C 86% 4.6 mph E7.4 kmh E 5.8 mph9.3 kmh 29.37 in994.6 mb - 0.01 in0.3 mm 0.01 in0.3 mm
12:35 AM 48.3°F9.1°C 44.3°F6.8°C 86% 8.1 mph E13.0 kmh E 10.4 mph16.7 kmh 29.37 in994.6 mb - 0.01 in0.3 mm 0.01 in0.3 mm
12:30 AM 48.3°F9.1°C 44.3°F6.8°C 86% 5.8 mph E9.3 kmh E 9.2 mph14.8 kmh 29.37 in994.6 mb - 0.01 in0.3 mm 0.01 in0.3 mm
12:25 AM 48.4°F9.1°C 44.4°F6.9°C 86% 5.8 mph E9.3 kmh E 8.1 mph13.0 kmh 29.38 in994.9 mb - 0.01 in0.3 mm 0.01 in0.3 mm
12:20 AM 48.5°F9.2°C 44.5°F6.9°C 86% 4.6 mph E7.4 kmh E 8.1 mph13.0 kmh 29.38 in994.9 mb - 0.01 in0.3 mm 0.01 in0.3 mm
12:15 AM 48.5°F9.2°C 44.5°F6.9°C 86% 4.6 mph E7.4 kmh E 6.9 mph11.1 kmh 29.38 in994.9 mb - 0.00 in0.0 mm 0.00 in0.0 mm
12:10 AM 48.5°F9.2°C 44.5°F6.9°C 86% 3.5 mph E5.6 kmh E 8.1 mph13.0 kmh 29.38 in994.9 mb - 0.00 in0.0 mm 0.00 in0.0 mm
12:05 AM 48.5°F9.2°C 44.5°F6.9°C 86% 5.8 mph E9.3 kmh E 6.9 mph11.1 kmh 29.38 in994.9 mb - 0.00 in0.0 mm 0.00 in0.0 mm
12:00 AM 48.5°F9.2°C 44.5°F6.9°C 86% 6.9 mph E11.1 kmh E 6.9 mph11.1 kmh 29.38 in994.9 mb - 0.00 in0.0 mm 0.00 in0.0 mm